sensor_id;sensor_type;location;lat;lon;timestamp;temperature;humidity
48208;DHT22;33997;53.278;9.708;2022-08-14T00:00:23;22.50;63.90
48208;DHT22;33997;53.278;9.708;2022-08-14T00:02:49;22.50;63.90
48208;DHT22;33997;53.278;9.708;2022-08-14T00:05:17;22.50;63.70
48208;DHT22;33997;53.278;9.708;2022-08-14T00:07:44;22.50;64.50
48208;DHT22;33997;53.278;9.708;2022-08-14T00:10:14;22.50;64.10
48208;DHT22;33997;53.278;9.708;2022-08-14T00:12:45;22.40;64.40
48208;DHT22;33997;53.278;9.708;2022-08-14T00:15:16;22.30;64.90
48208;DHT22;33997;53.278;9.708;2022-08-14T00:17:43;22.30;64.70
48208;DHT22;33997;53.278;9.708;2022-08-14T00:20:09;22.30;64.70
48208;DHT22;33997;53.278;9.708;2022-08-14T00:22:34;22.40;64.90
48208;DHT22;33997;53.278;9.708;2022-08-14T00:25:00;22.30;65.00
48208;DHT22;33997;53.278;9.708;2022-08-14T00:27:26;22.30;64.90
48208;DHT22;33997;53.278;9.708;2022-08-14T00:29:51;22.30;65.30
48208;DHT22;33997;53.278;9.708;2022-08-14T00:32:17;22.30;65.40
48208;DHT22;33997;53.278;9.708;2022-08-14T00:34:42;22.30;65.30
48208;DHT22;33997;53.278;9.708;2022-08-14T00:37:08;22.30;65.10
48208;DHT22;33997;53.278;9.708;2022-08-14T00:39:33;22.30;65.40
48208;DHT22;33997;53.278;9.708;2022-08-14T00:41:59;22.30;65.30
48208;DHT22;33997;53.278;9.708;2022-08-14T00:44:24;22.30;64.90
48208;DHT22;33997;53.278;9.708;2022-08-14T00:46:50;22.30;64.90
48208;DHT22;33997;53.278;9.708;2022-08-14T00:49:15;22.40;65.10
48208;DHT22;33997;53.278;9.708;2022-08-14T00:51:42;22.30;65.10
48208;DHT22;33997;53.278;9.708;2022-08-14T00:54:09;22.30;65.10
48208;DHT22;33997;53.278;9.708;2022-08-14T00:56:36;22.30;65.00
48208;DHT22;33997;53.278;9.708;2022-08-14T00:59:02;22.30;65.00
48208;DHT22;33997;53.278;9.708;2022-08-14T01:01:28;22.30;64.80
48208;DHT22;33997;53.278;9.708;2022-08-14T01:03:56;22.20;65.10
48208;DHT22;33997;53.278;9.708;2022-08-14T01:06:23;22.20;65.30
48208;DHT22;33997;53.278;9.708;2022-08-14T01:08:50;22.20;65.50
48208;DHT22;33997;53.278;9.708;2022-08-14T01:11:16;22.10;65.70
48208;DHT22;33997;53.278;9.708;2022-08-14T01:13:43;22.10;66.10
48208;DHT22;33997;53.278;9.708;2022-08-14T01:16:14;22.10;65.90
48208;DHT22;33997;53.278;9.708;2022-08-14T01:18:40;22.00;66.00
48208;DHT22;33997;53.278;9.708;2022-08-14T01:23:55;22.00;66.20
48208;DHT22;33997;53.278;9.708;2022-08-14T01:26:23;22.00;66.30
48208;DHT22;33997;53.278;9.708;2022-08-14T01:28:51;22.00;65.90
48208;DHT22;33997;53.278;9.708;2022-08-14T01:31:21;22.00;66.20
48208;DHT22;33997;53.278;9.708;2022-08-14T01:33:48;22.00;66.60
48208;DHT22;33997;53.278;9.708;2022-08-14T01:36:16;21.90;66.40
48208;DHT22;33997;53.278;9.708;2022-08-14T01:38:44;21.90;66.30
48208;DHT22;33997;53.278;9.708;2022-08-14T01:41:15;21.90;66.40
48208;DHT22;33997;53.278;9.708;2022-08-14T01:43:50;21.80;66.50
48208;DHT22;33997;53.278;9.708;2022-08-14T01:46:21;21.80;66.60
48208;DHT22;33997;53.278;9.708;2022-08-14T01:48:47;21.80;66.80
48208;DHT22;33997;53.278;9.708;2022-08-14T01:51:15;21.80;67.20
48208;DHT22;33997;53.278;9.708;2022-08-14T01:53:43;21.70;67.00
48208;DHT22;33997;53.278;9.708;2022-08-14T01:56:09;21.70;67.00
48208;DHT22;33997;53.278;9.708;2022-08-14T01:58:35;21.60;67.10
48208;DHT22;33997;53.278;9.708;2022-08-14T02:01:00;21.70;67.00
48208;DHT22;33997;53.278;9.708;2022-08-14T02:03:30;21.60;67.20
48208;DHT22;33997;53.278;9.708;2022-08-14T02:06:00;21.60;67.20
48208;DHT22;33997;53.278;9.708;2022-08-14T02:08:27;21.60;67.50
48208;DHT22;33997;53.278;9.708;2022-08-14T02:10:56;21.50;67.60
48208;DHT22;33997;53.278;9.708;2022-08-14T02:13:42;21.50;67.90
48208;DHT22;33997;53.278;9.708;2022-08-14T02:16:12;21.50;68.00
48208;DHT22;33997;53.278;9.708;2022-08-14T02:18:41;21.50;67.90
48208;DHT22;33997;53.278;9.708;2022-08-14T02:21:06;21.50;68.20
48208;DHT22;33997;53.278;9.708;2022-08-14T02:23:32;21.50;68.20
48208;DHT22;33997;53.278;9.708;2022-08-14T02:25:59;21.50;68.50
48208;DHT22;33997;53.278;9.708;2022-08-14T02:28:26;21.50;68.30
48208;DHT22;33997;53.278;9.708;2022-08-14T02:30:57;21.50;68.30
48208;DHT22;33997;53.278;9.708;2022-08-14T02:33:23;21.50;68.40
48208;DHT22;33997;53.278;9.708;2022-08-14T02:35:49;21.40;68.40
48208;DHT22;33997;53.278;9.708;2022-08-14T02:38:16;21.40;68.50
48208;DHT22;33997;53.278;9.708;2022-08-14T02:40:42;21.30;69.20
48208;DHT22;33997;53.278;9.708;2022-08-14T02:43:07;21.20;68.90
48208;DHT22;33997;53.278;9.708;2022-08-14T02:45:33;21.20;70.00
48208;DHT22;33997;53.278;9.708;2022-08-14T02:48:00;21.10;69.70
48208;DHT22;33997;53.278;9.708;2022-08-14T02:50:26;21.00;69.80
48208;DHT22;33997;53.278;9.708;2022-08-14T02:52:52;21.00;70.00
48208;DHT22;33997;53.278;9.708;2022-08-14T02:55:18;21.00;69.90
48208;DHT22;33997;53.278;9.708;2022-08-14T02:57:46;21.00;70.20
48208;DHT22;33997;53.278;9.708;2022-08-14T03:00:12;21.00;69.90
48208;DHT22;33997;53.278;9.708;2022-08-14T03:02:37;20.90;70.50
48208;DHT22;33997;53.278;9.708;2022-08-14T03:05:04;20.90;70.60
48208;DHT22;33997;53.278;9.708;2022-08-14T03:07:29;20.70;70.80
48208;DHT22;33997;53.278;9.708;2022-08-14T03:09:55;20.70;71.00
48208;DHT22;33997;53.278;9.708;2022-08-14T03:12:21;20.60;71.00
48208;DHT22;33997;53.278;9.708;2022-08-14T03:14:46;20.50;71.30
48208;DHT22;33997;53.278;9.708;2022-08-14T03:17:17;20.50;71.50
48208;DHT22;33997;53.278;9.708;2022-08-14T03:19:42;20.40;71.50
48208;DHT22;33997;53.278;9.708;2022-08-14T03:22:08;20.50;71.70
48208;DHT22;33997;53.278;9.708;2022-08-14T03:24:34;20.40;72.00
48208;DHT22;33997;53.278;9.708;2022-08-14T03:27:01;20.30;72.20
48208;DHT22;33997;53.278;9.708;2022-08-14T03:29:27;20.20;72.70
48208;DHT22;33997;53.278;9.708;2022-08-14T03:31:54;20.20;72.60
48208;DHT22;33997;53.278;9.708;2022-08-14T03:34:20;20.20;72.60
48208;DHT22;33997;53.278;9.708;2022-08-14T03:36:49;20.20;72.90
48208;DHT22;33997;53.278;9.708;2022-08-14T03:39:22;20.10;73.00
48208;DHT22;33997;53.278;9.708;2022-08-14T03:41:53;20.10;73.20
48208;DHT22;33997;53.278;9.708;2022-08-14T03:44:20;20.10;73.20
48208;DHT22;33997;53.278;9.708;2022-08-14T03:46:45;20.00;73.50
48208;DHT22;33997;53.278;9.708;2022-08-14T03:49:11;20.00;73.60
48208;DHT22;33997;53.278;9.708;2022-08-14T03:51:37;20.00;73.40
48208;DHT22;33997;53.278;9.708;2022-08-14T03:54:04;20.00;73.80
48208;DHT22;33997;53.278;9.708;2022-08-14T03:56:32;20.00;73.60
48208;DHT22;33997;53.278;9.708;2022-08-14T03:59:00;20.00;73.80
48208;DHT22;33997;53.278;9.708;2022-08-14T04:01:27;20.00;73.80
48208;DHT22;33997;53.278;9.708;2022-08-14T04:03:54;20.00;74.00
48208;DHT22;33997;53.278;9.708;2022-08-14T04:06:22;20.00;73.90
48208;DHT22;33997;53.278;9.708;2022-08-14T04:08:48;20.00;74.00
48208;DHT22;33997;53.278;9.708;2022-08-14T04:11:15;20.00;74.20
48208;DHT22;33997;53.278;9.708;2022-08-14T04:13:42;20.00;74.20
48208;DHT22;33997;53.278;9.708;2022-08-14T04:16:10;19.90;74.30
48208;DHT22;33997;53.278;9.708;2022-08-14T04:18:40;20.00;74.60
48208;DHT22;33997;53.278;9.708;2022-08-14T04:21:06;20.00;74.60
48208;DHT22;33997;53.278;9.708;2022-08-14T04:23:32;20.00;74.50
48208;DHT22;33997;53.278;9.708;2022-08-14T04:25:58;20.00;74.50
48208;DHT22;33997;53.278;9.708;2022-08-14T04:28:24;20.00;74.40
48208;DHT22;33997;53.278;9.708;2022-08-14T04:30:50;20.00;74.30
48208;DHT22;33997;53.278;9.708;2022-08-14T04:33:16;20.00;74.40
48208;DHT22;33997;53.278;9.708;2022-08-14T04:35:41;20.00;74.40
48208;DHT22;33997;53.278;9.708;2022-08-14T04:38:08;20.10;74.40
48208;DHT22;33997;53.278;9.708;2022-08-14T04:40:52;20.00;74.80
48208;DHT22;33997;53.278;9.708;2022-08-14T04:43:37;20.10;74.40
48208;DHT22;33997;53.278;9.708;2022-08-14T04:46:12;20.20;74.40
48208;DHT22;33997;53.278;9.708;2022-08-14T04:48:39;20.30;74.40
48208;DHT22;33997;53.278;9.708;2022-08-14T04:51:07;20.30;74.60
48208;DHT22;33997;53.278;9.708;2022-08-14T04:53:35;20.30;74.50
48208;DHT22;33997;53.278;9.708;2022-08-14T04:56:03;20.30;74.60
48208;DHT22;33997;53.278;9.708;2022-08-14T04:58:31;20.40;74.60
48208;DHT22;33997;53.278;9.708;2022-08-14T05:00:57;20.30;74.10
48208;DHT22;33997;53.278;9.708;2022-08-14T05:03:26;20.40;74.50
48208;DHT22;33997;53.278;9.708;2022-08-14T05:05:54;20.40;74.00
48208;DHT22;33997;53.278;9.708;2022-08-14T05:08:20;20.40;74.60
48208;DHT22;33997;53.278;9.708;2022-08-14T05:10:50;20.40;75.10
48208;DHT22;33997;53.278;9.708;2022-08-14T05:13:18;20.40;75.10
48208;DHT22;33997;53.278;9.708;2022-08-14T05:15:43;20.30;75.30
48208;DHT22;33997;53.278;9.708;2022-08-14T05:18:13;20.30;75.40
48208;DHT22;33997;53.278;9.708;2022-08-14T05:20:40;20.40;75.30
48208;DHT22;33997;53.278;9.708;2022-08-14T05:23:08;20.40;75.30
48208;DHT22;33997;53.278;9.708;2022-08-14T05:25:34;20.50;75.30
48208;DHT22;33997;53.278;9.708;2022-08-14T05:28:11;20.50;74.90
48208;DHT22;33997;53.278;9.708;2022-08-14T05:30:38;20.50;75.40
48208;DHT22;33997;53.278;9.708;2022-08-14T05:33:04;20.50;74.80
48208;DHT22;33997;53.278;9.708;2022-08-14T05:35:31;20.60;74.80
48208;DHT22;33997;53.278;9.708;2022-08-14T05:37:58;20.70;73.80
48208;DHT22;33997;53.278;9.708;2022-08-14T05:40:24;20.70;73.80
48208;DHT22;33997;53.278;9.708;2022-08-14T05:42:49;20.80;74.00
48208;DHT22;33997;53.278;9.708;2022-08-14T05:45:15;20.80;73.50
48208;DHT22;33997;53.278;9.708;2022-08-14T05:47:41;20.90;73.60
48208;DHT22;33997;53.278;9.708;2022-08-14T05:50:12;20.90;73.70
48208;DHT22;33997;53.278;9.708;2022-08-14T05:52:38;20.90;73.60
48208;DHT22;33997;53.278;9.708;2022-08-14T05:55:05;20.90;73.90
48208;DHT22;33997;53.278;9.708;2022-08-14T05:57:31;21.00;73.30
48208;DHT22;33997;53.278;9.708;2022-08-14T05:59:56;21.00;73.10
48208;DHT22;33997;53.278;9.708;2022-08-14T06:02:22;21.10;73.40
48208;DHT22;33997;53.278;9.708;2022-08-14T06:04:48;21.20;73.20
48208;DHT22;33997;53.278;9.708;2022-08-14T06:07:14;21.20;73.10
48208;DHT22;33997;53.278;9.708;2022-08-14T06:09:39;21.30;73.10
48208;DHT22;33997;53.278;9.708;2022-08-14T06:12:06;21.40;72.90
48208;DHT22;33997;53.278;9.708;2022-08-14T06:14:32;21.50;72.90
48208;DHT22;33997;53.278;9.708;2022-08-14T06:16:58;21.60;72.10
48208;DHT22;33997;53.278;9.708;2022-08-14T06:19:23;21.80;72.20
48208;DHT22;33997;53.278;9.708;2022-08-14T06:21:49;21.90;71.80
48208;DHT22;33997;53.278;9.708;2022-08-14T06:24:15;22.00;71.60
48208;DHT22;33997;53.278;9.708;2022-08-14T06:26:41;22.30;71.20
48208;DHT22;33997;53.278;9.708;2022-08-14T06:29:06;22.50;69.90
48208;DHT22;33997;53.278;9.708;2022-08-14T06:31:32;22.60;70.20
48208;DHT22;33997;53.278;9.708;2022-08-14T06:33:57;22.70;69.30
48208;DHT22;33997;53.278;9.708;2022-08-14T06:36:23;22.90;70.30
48208;DHT22;33997;53.278;9.708;2022-08-14T06:38:50;23.10;69.40
48208;DHT22;33997;53.278;9.708;2022-08-14T06:41:16;23.30;68.60
48208;DHT22;33997;53.278;9.708;2022-08-14T06:43:42;23.30;68.70
48208;DHT22;33997;53.278;9.708;2022-08-14T06:46:07;23.40;68.40
48208;DHT22;33997;53.278;9.708;2022-08-14T06:48:34;23.30;67.20
48208;DHT22;33997;53.278;9.708;2022-08-14T06:50:59;23.30;67.80
48208;DHT22;33997;53.278;9.708;2022-08-14T06:53:25;23.20;68.50
48208;DHT22;33997;53.278;9.708;2022-08-14T06:55:50;23.30;69.40
48208;DHT22;33997;53.278;9.708;2022-08-14T06:58:17;23.10;68.50
48208;DHT22;33997;53.278;9.708;2022-08-14T07:00:44;23.30;68.80
48208;DHT22;33997;53.278;9.708;2022-08-14T07:03:32;23.40;69.00
48208;DHT22;33997;53.278;9.708;2022-08-14T07:06:16;23.50;68.90
48208;DHT22;33997;53.278;9.708;2022-08-14T07:08:43;23.60;68.20
48208;DHT22;33997;53.278;9.708;2022-08-14T07:11:09;23.70;67.50
48208;DHT22;33997;53.278;9.708;2022-08-14T07:13:35;23.80;67.60
48208;DHT22;33997;53.278;9.708;2022-08-14T07:16:01;23.80;67.50
48208;DHT22;33997;53.278;9.708;2022-08-14T07:18:29;24.00;67.70
48208;DHT22;33997;53.278;9.708;2022-08-14T07:20:59;24.00;67.30
48208;DHT22;33997;53.278;9.708;2022-08-14T07:23:25;24.10;67.20
48208;DHT22;33997;53.278;9.708;2022-08-14T07:25:55;24.30;66.90
48208;DHT22;33997;53.278;9.708;2022-08-14T07:28:27;24.50;67.60
48208;DHT22;33997;53.278;9.708;2022-08-14T07:30:55;24.50;67.90
48208;DHT22;33997;53.278;9.708;2022-08-14T07:33:24;24.50;66.90
48208;DHT22;33997;53.278;9.708;2022-08-14T07:35:50;24.70;65.70
48208;DHT22;33997;53.278;9.708;2022-08-14T07:38:18;24.80;65.00
48208;DHT22;33997;53.278;9.708;2022-08-14T07:40:45;24.90;65.40
48208;DHT22;33997;53.278;9.708;2022-08-14T07:43:10;25.10;65.80
48208;DHT22;33997;53.278;9.708;2022-08-14T07:45:38;25.20;66.60
48208;DHT22;33997;53.278;9.708;2022-08-14T07:48:03;25.10;65.50
48208;DHT22;33997;53.278;9.708;2022-08-14T07:50:31;25.50;64.40
48208;DHT22;33997;53.278;9.708;2022-08-14T07:52:57;25.60;64.00
48208;DHT22;33997;53.278;9.708;2022-08-14T07:55:24;25.60;64.30
48208;DHT22;33997;53.278;9.708;2022-08-14T07:57:50;25.80;62.50
48208;DHT22;33997;53.278;9.708;2022-08-14T08:00:18;26.00;63.20
48208;DHT22;33997;53.278;9.708;2022-08-14T08:02:46;25.90;62.70
48208;DHT22;33997;53.278;9.708;2022-08-14T08:05:12;26.10;62.60
48208;DHT22;33997;53.278;9.708;2022-08-14T08:07:39;26.40;62.30
48208;DHT22;33997;53.278;9.708;2022-08-14T08:10:08;26.50;60.80
48208;DHT22;33997;53.278;9.708;2022-08-14T08:12:55;26.70;60.10
48208;DHT22;33997;53.278;9.708;2022-08-14T08:15:22;26.80;59.70
48208;DHT22;33997;53.278;9.708;2022-08-14T08:17:47;27.10;59.70
48208;DHT22;33997;53.278;9.708;2022-08-14T08:20:17;27.30;59.40
48208;DHT22;33997;53.278;9.708;2022-08-14T08:22:44;27.20;58.10
48208;DHT22;33997;53.278;9.708;2022-08-14T08:25:10;27.40;59.50
48208;DHT22;33997;53.278;9.708;2022-08-14T08:27:36;27.60;56.80
48208;DHT22;33997;53.278;9.708;2022-08-14T08:30:07;27.70;58.40
48208;DHT22;33997;53.278;9.708;2022-08-14T08:32:41;27.90;58.80
48208;DHT22;33997;53.278;9.708;2022-08-14T08:35:28;27.80;56.40
48208;DHT22;33997;53.278;9.708;2022-08-14T08:38:02;28.00;56.50
48208;DHT22;33997;53.278;9.708;2022-08-14T08:40:32;28.30;56.40
48208;DHT22;33997;53.278;9.708;2022-08-14T08:43:01;28.40;56.90
48208;DHT22;33997;53.278;9.708;2022-08-14T08:45:27;28.50;57.40
48208;DHT22;33997;53.278;9.708;2022-08-14T08:47:52;28.50;56.50
48208;DHT22;33997;53.278;9.708;2022-08-14T08:50:21;28.80;55.30
48208;DHT22;33997;53.278;9.708;2022-08-14T08:52:52;28.90;54.30
48208;DHT22;33997;53.278;9.708;2022-08-14T08:55:32;28.70;53.50
48208;DHT22;33997;53.278;9.708;2022-08-14T08:58:01;28.90;55.00
48208;DHT22;33997;53.278;9.708;2022-08-14T09:00:29;29.00;54.40
48208;DHT22;33997;53.278;9.708;2022-08-14T09:03:01;29.20;52.10
48208;DHT22;33997;53.278;9.708;2022-08-14T09:05:29;29.10;52.60
48208;DHT22;33997;53.278;9.708;2022-08-14T09:08:13;29.70;52.60
48208;DHT22;33997;53.278;9.708;2022-08-14T09:10:39;29.10;50.80
48208;DHT22;33997;53.278;9.708;2022-08-14T09:13:05;28.90;50.10
48208;DHT22;33997;53.278;9.708;2022-08-14T09:15:30;28.60;52.10
48208;DHT22;33997;53.278;9.708;2022-08-14T09:17:57;28.70;51.50
48208;DHT22;33997;53.278;9.708;2022-08-14T09:20:22;29.00;52.30
48208;DHT22;33997;53.278;9.708;2022-08-14T09:22:48;29.20;50.90
48208;DHT22;33997;53.278;9.708;2022-08-14T09:25:15;29.40;50.80
48208;DHT22;33997;53.278;9.708;2022-08-14T09:27:40;29.50;49.10
48208;DHT22;33997;53.278;9.708;2022-08-14T09:30:07;29.10;49.90
48208;DHT22;33997;53.278;9.708;2022-08-14T09:36:08;30.00;49.10
48208;DHT22;33997;53.278;9.708;2022-08-14T09:47:18;30.90;47.60
48208;DHT22;33997;53.278;9.708;2022-08-14T09:49:46;30.10;47.70
48208;DHT22;33997;53.278;9.708;2022-08-14T09:52:14;30.20;47.50
48208;DHT22;33997;53.278;9.708;2022-08-14T09:54:43;30.60;47.50
48208;DHT22;33997;53.278;9.708;2022-08-14T09:57:11;31.00;48.40
48208;DHT22;33997;53.278;9.708;2022-08-14T09:59:48;30.50;47.50
48208;DHT22;33997;53.278;9.708;2022-08-14T10:02:25;30.70;48.00
48208;DHT22;33997;53.278;9.708;2022-08-14T10:05:00;30.90;47.40
48208;DHT22;33997;53.278;9.708;2022-08-14T10:07:34;30.90;47.20
48208;DHT22;33997;53.278;9.708;2022-08-14T10:10:00;30.80;46.90
48208;DHT22;33997;53.278;9.708;2022-08-14T10:12:41;31.00;46.10
48208;DHT22;33997;53.278;9.708;2022-08-14T10:15:23;31.40;46.30
48208;DHT22;33997;53.278;9.708;2022-08-14T10:18:01;31.50;45.60
48208;DHT22;33997;53.278;9.708;2022-08-14T10:20:34;31.50;45.70
48208;DHT22;33997;53.278;9.708;2022-08-14T10:23:14;30.90;46.00
48208;DHT22;33997;53.278;9.708;2022-08-14T10:25:42;30.90;47.00
48208;DHT22;33997;53.278;9.708;2022-08-14T10:28:09;31.10;45.70
48208;DHT22;33997;53.278;9.708;2022-08-14T10:30:40;31.40;45.70
48208;DHT22;33997;53.278;9.708;2022-08-14T10:33:06;31.20;44.70
48208;DHT22;33997;53.278;9.708;2022-08-14T10:35:42;31.30;44.70
48208;DHT22;33997;53.278;9.708;2022-08-14T10:38:08;31.20;45.20
48208;DHT22;33997;53.278;9.708;2022-08-14T10:40:35;30.80;44.60
48208;DHT22;33997;53.278;9.708;2022-08-14T10:43:01;31.40;45.50
48208;DHT22;33997;53.278;9.708;2022-08-14T10:45:32;31.40;43.00
48208;DHT22;33997;53.278;9.708;2022-08-14T10:47:58;31.70;42.00
48208;DHT22;33997;53.278;9.708;2022-08-14T10:50:30;31.50;42.20
48208;DHT22;33997;53.278;9.708;2022-08-14T10:52:57;30.90;44.30
48208;DHT22;33997;53.278;9.708;2022-08-14T10:55:31;31.00;44.20
48208;DHT22;33997;53.278;9.708;2022-08-14T10:57:57;30.70;43.40
48208;DHT22;33997;53.278;9.708;2022-08-14T11:00:25;30.70;43.60
48208;DHT22;33997;53.278;9.708;2022-08-14T11:03:01;30.50;44.40
48208;DHT22;33997;53.278;9.708;2022-08-14T11:05:45;30.80;44.30
48208;DHT22;33997;53.278;9.708;2022-08-14T11:08:13;30.80;44.50
48208;DHT22;33997;53.278;9.708;2022-08-14T11:10:49;30.70;44.10
48208;DHT22;33997;53.278;9.708;2022-08-14T11:13:20;30.40;45.00
48208;DHT22;33997;53.278;9.708;2022-08-14T11:15:49;30.50;44.30
48208;DHT22;33997;53.278;9.708;2022-08-14T11:18:16;30.90;44.30
48208;DHT22;33997;53.278;9.708;2022-08-14T11:20:50;31.00;42.50
48208;DHT22;33997;53.278;9.708;2022-08-14T11:23:19;31.50;43.50
48208;DHT22;33997;53.278;9.708;2022-08-14T11:25:46;32.20;42.40
48208;DHT22;33997;53.278;9.708;2022-08-14T11:28:14;31.50;42.40
48208;DHT22;33997;53.278;9.708;2022-08-14T11:30:43;32.10;42.70
48208;DHT22;33997;53.278;9.708;2022-08-14T11:33:09;31.90;42.70
48208;DHT22;33997;53.278;9.708;2022-08-14T11:35:35;31.90;42.80
48208;DHT22;33997;53.278;9.708;2022-08-14T11:38:04;31.50;42.80
48208;DHT22;33997;53.278;9.708;2022-08-14T11:40:36;32.80;42.50
48208;DHT22;33997;53.278;9.708;2022-08-14T11:43:04;32.10;41.30
48208;DHT22;33997;53.278;9.708;2022-08-14T11:45:39;32.40;41.40
48208;DHT22;33997;53.278;9.708;2022-08-14T11:48:16;32.90;41.50
48208;DHT22;33997;53.278;9.708;2022-08-14T11:50:42;33.30;39.00
48208;DHT22;33997;53.278;9.708;2022-08-14T11:53:25;33.50;39.10
48208;DHT22;33997;53.278;9.708;2022-08-14T11:56:05;34.30;38.10
48208;DHT22;33997;53.278;9.708;2022-08-14T11:58:36;34.40;37.60
48208;DHT22;33997;53.278;9.708;2022-08-14T12:01:04;34.50;36.70
48208;DHT22;33997;53.278;9.708;2022-08-14T12:03:45;34.40;37.00
48208;DHT22;33997;53.278;9.708;2022-08-14T12:06:15;34.30;37.40
48208;DHT22;33997;53.278;9.708;2022-08-14T12:08:41;34.80;38.00
48208;DHT22;33997;53.278;9.708;2022-08-14T12:11:12;35.50;36.80
48208;DHT22;33997;53.278;9.708;2022-08-14T12:13:38;34.60;36.30
48208;DHT22;33997;53.278;9.708;2022-08-14T12:16:07;34.20;37.20
48208;DHT22;33997;53.278;9.708;2022-08-14T12:18:38;35.00;35.70
48208;DHT22;33997;53.278;9.708;2022-08-14T12:21:14;33.90;37.60
48208;DHT22;33997;53.278;9.708;2022-08-14T12:23:40;33.90;38.10
48208;DHT22;33997;53.278;9.708;2022-08-14T12:26:09;33.70;38.50
48208;DHT22;33997;53.278;9.708;2022-08-14T12:28:35;33.40;38.30
48208;DHT22;33997;53.278;9.708;2022-08-14T12:31:15;34.40;38.00
48208;DHT22;33997;53.278;9.708;2022-08-14T12:33:43;34.40;37.00
48208;DHT22;33997;53.278;9.708;2022-08-14T12:36:20;34.10;37.60
48208;DHT22;33997;53.278;9.708;2022-08-14T12:38:45;34.40;38.10
48208;DHT22;33997;53.278;9.708;2022-08-14T12:41:15;33.80;37.80
48208;DHT22;33997;53.278;9.708;2022-08-14T12:43:52;33.60;38.70
48208;DHT22;33997;53.278;9.708;2022-08-14T12:46:23;33.60;38.60
48208;DHT22;33997;53.278;9.708;2022-08-14T12:48:53;33.70;40.70
48208;DHT22;33997;53.278;9.708;2022-08-14T12:51:21;33.20;39.10
48208;DHT22;33997;53.278;9.708;2022-08-14T12:53:47;33.90;39.10
48208;DHT22;33997;53.278;9.708;2022-08-14T12:56:20;33.20;39.80
48208;DHT22;33997;53.278;9.708;2022-08-14T12:58:48;33.10;40.40
48208;DHT22;33997;53.278;9.708;2022-08-14T13:01:34;32.90;40.60
48208;DHT22;33997;53.278;9.708;2022-08-14T13:04:03;32.40;40.80
48208;DHT22;33997;53.278;9.708;2022-08-14T13:06:30;32.40;41.80
48208;DHT22;33997;53.278;9.708;2022-08-14T13:08:56;32.60;40.90
48208;DHT22;33997;53.278;9.708;2022-08-14T13:11:23;32.40;41.20
48208;DHT22;33997;53.278;9.708;2022-08-14T13:13:54;32.50;41.10
48208;DHT22;33997;53.278;9.708;2022-08-14T13:16:23;32.10;42.00
48208;DHT22;33997;53.278;9.708;2022-08-14T13:18:50;32.00;42.40
48208;DHT22;33997;53.278;9.708;2022-08-14T13:21:15;32.50;42.80
48208;DHT22;33997;53.278;9.708;2022-08-14T13:23:41;32.80;41.40
48208;DHT22;33997;53.278;9.708;2022-08-14T13:26:08;32.60;40.30
48208;DHT22;33997;53.278;9.708;2022-08-14T13:28:37;33.20;39.80
48208;DHT22;33997;53.278;9.708;2022-08-14T13:31:03;34.10;39.90
48208;DHT22;33997;53.278;9.708;2022-08-14T13:33:33;34.80;38.40
48208;DHT22;33997;53.278;9.708;2022-08-14T13:36:01;35.60;36.80
48208;DHT22;33997;53.278;9.708;2022-08-14T13:38:27;34.90;37.60
48208;DHT22;33997;53.278;9.708;2022-08-14T13:40:55;34.20;36.70
48208;DHT22;33997;53.278;9.708;2022-08-14T13:43:22;33.00;37.90
48208;DHT22;33997;53.278;9.708;2022-08-14T13:45:52;32.90;38.00
48208;DHT22;33997;53.278;9.708;2022-08-14T13:48:21;32.60;38.90
48208;DHT22;33997;53.278;9.708;2022-08-14T13:50:52;33.50;38.10
48208;DHT22;33997;53.278;9.708;2022-08-14T13:53:21;33.70;37.70
48208;DHT22;33997;53.278;9.708;2022-08-14T13:55:50;34.10;37.20
48208;DHT22;33997;53.278;9.708;2022-08-14T13:58:19;33.30;37.30
48208;DHT22;33997;53.278;9.708;2022-08-14T14:00:46;33.90;38.10
48208;DHT22;33997;53.278;9.708;2022-08-14T14:03:16;35.00;35.70
48208;DHT22;33997;53.278;9.708;2022-08-14T14:05:42;34.80;37.60
48208;DHT22;33997;53.278;9.708;2022-08-14T14:08:08;34.20;36.80
48208;DHT22;33997;53.278;9.708;2022-08-14T14:10:36;33.80;36.80
48208;DHT22;33997;53.278;9.708;2022-08-14T14:13:02;34.10;36.80
48208;DHT22;33997;53.278;9.708;2022-08-14T14:15:28;33.80;35.90
48208;DHT22;33997;53.278;9.708;2022-08-14T14:17:55;34.20;36.50
48208;DHT22;33997;53.278;9.708;2022-08-14T14:20:22;33.70;36.00
48208;DHT22;33997;53.278;9.708;2022-08-14T14:22:50;33.90;36.80
48208;DHT22;33997;53.278;9.708;2022-08-14T14:25:17;34.00;36.50
48208;DHT22;33997;53.278;9.708;2022-08-14T14:27:45;33.10;37.10
48208;DHT22;33997;53.278;9.708;2022-08-14T14:30:14;32.90;38.60
48208;DHT22;33997;53.278;9.708;2022-08-14T14:32:42;33.40;38.10
48208;DHT22;33997;53.278;9.708;2022-08-14T14:35:18;33.80;36.00
48208;DHT22;33997;53.278;9.708;2022-08-14T14:37:44;34.50;35.60
48208;DHT22;33997;53.278;9.708;2022-08-14T14:40:12;34.80;34.80
48208;DHT22;33997;53.278;9.708;2022-08-14T14:42:50;36.10;33.40
48208;DHT22;33997;53.278;9.708;2022-08-14T14:45:18;36.20;32.00
48208;DHT22;33997;53.278;9.708;2022-08-14T14:47:47;35.20;32.60
48208;DHT22;33997;53.278;9.708;2022-08-14T14:50:14;35.10;32.80
48208;DHT22;33997;53.278;9.708;2022-08-14T14:52:40;35.10;33.80
48208;DHT22;33997;53.278;9.708;2022-08-14T14:55:07;35.60;32.20
48208;DHT22;33997;53.278;9.708;2022-08-14T14:57:33;37.00;30.60
48208;DHT22;33997;53.278;9.708;2022-08-14T14:59:59;37.60;30.50
48208;DHT22;33997;53.278;9.708;2022-08-14T15:02:35;38.20;29.20
48208;DHT22;33997;53.278;9.708;2022-08-14T15:05:01;37.50;29.30
48208;DHT22;33997;53.278;9.708;2022-08-14T15:07:27;38.60;29.10
48208;DHT22;33997;53.278;9.708;2022-08-14T15:09:53;38.20;27.40
48208;DHT22;33997;53.278;9.708;2022-08-14T15:12:19;38.20;28.40
48208;DHT22;33997;53.278;9.708;2022-08-14T15:14:44;37.40;30.10
48208;DHT22;33997;53.278;9.708;2022-08-14T15:17:10;36.10;30.70
48208;DHT22;33997;53.278;9.708;2022-08-14T15:19:36;35.40;31.60
48208;DHT22;33997;53.278;9.708;2022-08-14T15:22:02;34.90;32.90
48208;DHT22;33997;53.278;9.708;2022-08-14T15:24:27;34.30;32.60
48208;DHT22;33997;53.278;9.708;2022-08-14T15:26:54;33.70;33.00
48208;DHT22;33997;53.278;9.708;2022-08-14T15:29:21;33.60;34.50
48208;DHT22;33997;53.278;9.708;2022-08-14T15:31:46;33.50;34.30
48208;DHT22;33997;53.278;9.708;2022-08-14T15:34:12;33.30;35.10
48208;DHT22;33997;53.278;9.708;2022-08-14T15:36:42;33.30;36.50
48208;DHT22;33997;53.278;9.708;2022-08-14T15:39:13;33.20;35.30
48208;DHT22;33997;53.278;9.708;2022-08-14T15:41:39;33.00;36.30
48208;DHT22;33997;53.278;9.708;2022-08-14T15:44:06;32.60;36.70
48208;DHT22;33997;53.278;9.708;2022-08-14T15:46:33;32.20;37.50
48208;DHT22;33997;53.278;9.708;2022-08-14T15:48:58;31.90;37.80
48208;DHT22;33997;53.278;9.708;2022-08-14T15:51:24;31.70;38.20